Check out our new BloomSky Weather System.

Active alerts

Houston, TX
  Details for Houston, TX Dense Fog Advisory


Thunder radar  blitzortung!


Rain radar more information rain snow radar


Visit our other weather sites:

Template documentation
and downloads

And another site



Weather Underground History page Text

Daily Summary for May 9, 2017 Units:  Metric    English   Both
« Previous Day
Next Day »
Daily Weekly Monthly Yearly Custom
  High: Low: Average:
Temperature: 29.8 °C 18.4 °C 23.5 °C
Dew Point: 23 °C 16.8 °C 20 °C
Humidity: 94 % 59 % 81 %
Wind Speed: 20.9 km/h 0 km/h 4.5 km/h
Wind Gust: 24.1 km/h - -
Wind:- - SE
Pressure: 1016.8 hPa 1013.4 hPa -
Precipitation: 0 mm    
Historical Graphs
 
 
Tabular Data for May 9, 2017
Time Temperature Dew Point Pressure Wind Wind Speed Wind Gust Humidity Rainfall Rate (Hourly)
00:03 21.2 °C 17.4 °C 1015.8 hPa SE 1.6 km/h 3.2 km/h 79 % 0 mm
00:08 21.2 °C 17.6 °C 1015.8 hPa Calm   3.2 km/h 80 % 0 mm
00:13 21.2 °C 17.6 °C 1015.8 hPa Calm   4.8 km/h 80 % 0 mm
00:18 21.2 °C 17.6 °C 1015.8 hPa Calm   4.8 km/h 80 % 0 mm
00:24 21.2 °C 17.6 °C 1015.8 hPa East 3.2 km/h 4.8 km/h 80 % 0 mm
00:29 21.2 °C 17.6 °C 1015.8 hPa ESE 1.6 km/h 4.8 km/h 80 % 0 mm
00:34 21.1 °C 17.5 °C 1015.5 hPa ESE 1.6 km/h 4.8 km/h 80 % 0 mm
00:39 21.1 °C 17.7 °C 1015.5 hPa ESE 1.6 km/h 3.2 km/h 81 % 0 mm
00:44 21.1 °C 17.7 °C 1015.5 hPa ESE 1.6 km/h 3.2 km/h 81 % 0 mm
00:49 21.1 °C 17.7 °C 1015.5 hPa SE 1.6 km/h 3.2 km/h 81 % 0 mm
00:54 20.9 °C 17.5 °C 1015.8 hPa Calm   3.2 km/h 81 % 0 mm
00:59 20.9 °C 17.5 °C 1015.5 hPa Calm   3.2 km/h 81 % 0 mm
01:04 20.9 °C 17.7 °C 1015.5 hPa Calm   3.2 km/h 82 % 0 mm
01:09 20.8 °C 17.6 °C 1015.8 hPa Calm   1.6 km/h 82 % 0 mm
01:14 20.7 °C 17.5 °C 1015.5 hPa Calm   1.6 km/h 82 % 0 mm
01:19 20.7 °C 17.5 °C 1015.5 hPa Calm   1.6 km/h 82 % 0 mm
01:24 20.4 °C 17.4 °C 1015.5 hPa Calm   1.6 km/h 83 % 0 mm
01:29 20.3 °C 17.5 °C 1015.1 hPa Calm   1.6 km/h 84 % 0 mm
01:34 20.2 °C 17.4 °C 1015.1 hPa Calm   1.6 km/h 84 % 0 mm
01:39 20.1 °C 17.3 °C 1015.1 hPa Calm   1.6 km/h 84 % 0 mm
01:44 19.9 °C 17.3 °C 1015.1 hPa Calm   1.6 km/h 85 % 0 mm
01:49 19.8 °C 17.2 °C 1014.8 hPa Calm     85 % 0 mm
01:54 19.7 °C 17.3 °C 1014.8 hPa Calm     86 % 0 mm
01:59 19.6 °C 17.2 °C 1014.8 hPa Calm     86 % 0 mm
02:04 19.4 °C 17.2 °C 1014.8 hPa Calm     87 % 0 mm
02:05 19.4 °C 17.2 °C 1014.8 hPa Calm     87 % 0 mm
02:10 19.3 °C 17.1 °C 1014.8 hPa Calm     87 % 0 mm
02:15 19.2 °C 17.2 °C 1014.8 hPa Calm     88 % 0 mm
02:20 19 °C 17 °C 1014.8 hPa Calm     88 % 0 mm
02:25 19 °C 17.1 °C 1014.8 hPa Calm     89 % 0 mm
02:30 18.8 °C 16.9 °C 1014.4 hPa Calm     89 % 0 mm
02:35 18.8 °C 16.9 °C 1014.4 hPa Calm     89 % 0 mm
02:40 18.7 °C 16.8 °C 1014.4 hPa Calm     89 % 0 mm
02:45 18.6 °C 16.8 °C 1014.4 hPa Calm     89 % 0 mm
02:50 18.6 °C 16.9 °C 1014.4 hPa Calm     90 % 0 mm
02:55 18.5 °C 17 °C 1014.4 hPa Calm     91 % 0 mm
03:00 18.5 °C 17 °C 1014.4 hPa Calm     91 % 0 mm
03:01 18.5 °C 17 °C 1014.1 hPa Calm     91 % 0 mm
03:06 18.5 °C 17 °C 1014.1 hPa Calm     91 % 0 mm
03:11 18.4 °C 16.9 °C 1014.4 hPa Calm     91 % 0 mm
03:16 18.4 °C 16.9 °C 1014.4 hPa Calm     91 % 0 mm
03:21 18.4 °C 17.1 °C 1014.1 hPa Calm     92 % 0 mm
03:26 18.4 °C 17.1 °C 1014.1 hPa Calm     92 % 0 mm
03:31 18.4 °C 17.1 °C 1014.1 hPa Calm     92 % 0 mm
03:36 18.4 °C 17.1 °C 1014.1 hPa Calm     92 % 0 mm
03:42 18.4 °C 17.1 °C 1014.1 hPa Calm     92 % 0 mm
03:46 18.4 °C 17.1 °C 1014.1 hPa Calm     92 % 0 mm
03:52 18.4 °C 17.2 °C 1014.4 hPa Calm     93 % 0 mm
03:57 18.4 °C 17.2 °C 1014.4 hPa Calm     93 % 0 mm
04:02 18.4 °C 17.2 °C 1014.4 hPa Calm     93 % 0 mm
04:07 18.4 °C 17.2 °C 1014.1 hPa Calm     93 % 0 mm
04:12 18.5 °C 17.3 °C 1014.4 hPa Calm     93 % 0 mm
04:17 18.5 °C 17.3 °C 1014.4 hPa Calm   1.6 km/h 93 % 0 mm
04:22 18.5 °C 17.3 °C 1014.4 hPa Calm   1.6 km/h 93 % 0 mm
04:27 18.6 °C 17.4 °C 1014.4 hPa Calm   1.6 km/h 93 % 0 mm
04:32 18.6 °C 17.4 °C 1014.4 hPa Calm     93 % 0 mm
04:37 18.6 °C 17.4 °C 1014.4 hPa Calm     93 % 0 mm
04:42 18.6 °C 17.4 °C 1014.4 hPa Calm     93 % 0 mm
04:47 18.6 °C 17.4 °C 1014.4 hPa Calm   1.6 km/h 93 % 0 mm
04:52 18.7 °C 17.5 °C 1014.4 hPa Calm   1.6 km/h 93 % 0 mm
04:57 18.7 °C 17.5 °C 1014.4 hPa Calm   1.6 km/h 93 % 0 mm
05:02 18.7 °C 17.5 °C 1014.4 hPa Calm   1.6 km/h 93 % 0 mm
05:07 18.7 °C 17.5 °C 1014.4 hPa Calm   1.6 km/h 93 % 0 mm
05:12 18.7 °C 17.5 °C 1014.8 hPa Calm     93 % 0 mm
05:17 18.7 °C 17.5 °C 1014.4 hPa Calm   1.6 km/h 93 % 0 mm
05:22 18.7 °C 17.5 °C 1014.4 hPa Calm   1.6 km/h 93 % 0 mm
05:27 18.8 °C 17.6 °C 1014.4 hPa Calm   1.6 km/h 93 % 0 mm
05:32 18.9 °C 17.7 °C 1014.8 hPa Calm   1.6 km/h 93 % 0 mm
05:37 18.9 °C 17.7 °C 1014.4 hPa Calm   1.6 km/h 93 % 0 mm
05:42 19 °C 17.8 °C 1014.4 hPa Calm   1.6 km/h 93 % 0 mm
05:47 19.1 °C 17.9 °C 1014.4 hPa Calm   1.6 km/h 93 % 0 mm
05:52 19.1 °C 17.9 °C 1014.4 hPa Calm   1.6 km/h 93 % 0 mm
05:57 19.1 °C 17.9 °C 1014.4 hPa Calm   1.6 km/h 93 % 0 mm
06:02 19.2 °C 18 °C 1014.4 hPa Calm   1.6 km/h 93 % 0 mm
06:07 19.1 °C 17.9 °C 1014.8 hPa Calm   1.6 km/h 93 % 0 mm
06:12 19.1 °C 17.9 °C 1014.8 hPa Calm   1.6 km/h 93 % 0 mm
06:17 19.1 °C 17.9 °C 1014.8 hPa Calm   1.6 km/h 93 % 0 mm
06:22 19.2 °C 18 °C 1014.8 hPa Calm   1.6 km/h 93 % 0 mm
06:27 19.2 °C 18 °C 1014.8 hPa Calm   1.6 km/h 93 % 0 mm
06:32 19.2 °C 18 °C 1014.8 hPa Calm   1.6 km/h 93 % 0 mm
06:37 19.2 °C 18 °C 1014.8 hPa Calm   1.6 km/h 93 % 0 mm
06:42 19.2 °C 18 °C 1015.1 hPa Calm   1.6 km/h 93 % 0 mm
06:47 19.2 °C 18 °C 1015.1 hPa Calm   1.6 km/h 93 % 0 mm
06:52 19.2 °C 18.2 °C 1015.1 hPa Calm   1.6 km/h 94 % 0 mm
06:57 19.3 °C 18.3 °C 1015.1 hPa Calm   1.6 km/h 94 % 0 mm
07:02 19.3 °C 18.3 °C 1015.1 hPa Calm   1.6 km/h 94 % 0 mm
07:07 19.4 °C 18.4 °C 1015.5 hPa Calm   1.6 km/h 94 % 0 mm
07:12 19.5 °C 18.5 °C 1015.5 hPa Calm   3.2 km/h 94 % 0 mm
07:17 19.6 °C 18.6 °C 1015.5 hPa Calm   3.2 km/h 94 % 0 mm
07:22 19.6 °C 18.6 °C 1015.5 hPa Calm   3.2 km/h 94 % 0 mm
07:27 19.8 °C 18.8 °C 1015.5 hPa Calm   1.6 km/h 94 % 0 mm
07:32 19.9 °C 18.9 °C 1015.5 hPa Calm   3.2 km/h 94 % 0 mm
07:37 20.1 °C 18.9 °C 1015.8 hPa Calm   4.8 km/h 93 % 0 mm
07:42 20.2 °C 19 °C 1015.5 hPa Calm   4.8 km/h 93 % 0 mm
07:47 20.4 °C 19.2 °C 1015.8 hPa Calm   4.8 km/h 93 % 0 mm
07:52 20.6 °C 19.4 °C 1015.8 hPa Calm   4.8 km/h 93 % 0 mm
07:57 20.9 °C 19.7 °C 1015.8 hPa Calm   4.8 km/h 93 % 0 mm
08:02 21.1 °C 19.7 °C 1015.8 hPa Calm   3.2 km/h 92 % 0 mm
08:07 21.2 °C 19.8 °C 1015.8 hPa NNW 1.6 km/h 3.2 km/h 92 % 0 mm
08:12 21.2 °C 19.8 °C 1015.8 hPa Calm   3.2 km/h 92 % 0 mm
08:17 21.3 °C 19.8 °C 1015.8 hPa Calm   4.8 km/h 91 % 0 mm
08:22 21.4 °C 19.9 °C 1016.1 hPa East 1.6 km/h 4.8 km/h 91 % 0 mm
08:27 21.6 °C 20.2 °C 1016.1 hPa Calm   4.8 km/h 92 % 0 mm
08:32 21.9 °C 20.4 °C 1016.1 hPa SE 3.2 km/h 3.2 km/h 91 % 0 mm
08:37 22.2 °C 20.7 °C 1016.1 hPa Calm   6.4 km/h 91 % 0 mm
08:42 22.4 °C 20.7 °C 1016.1 hPa Calm   6.4 km/h 90 % 0 mm
08:47 22.6 °C 20.7 °C 1016.1 hPa Calm   6.4 km/h 89 % 0 mm
08:52 22.7 °C 20.8 °C 1016.1 hPa ENE 3.2 km/h 6.4 km/h 89 % 0 mm
08:57 22.8 °C 20.9 °C 1016.1 hPa Calm   6.4 km/h 89 % 0 mm
09:02 23 °C 20.9 °C 1016.1 hPa Calm   6.4 km/h 88 % 0 mm
09:07 23.1 °C 21 °C 1016.1 hPa Calm   4.8 km/h 88 % 0 mm
09:12 23.2 °C 21.1 °C 1016.1 hPa Calm   6.4 km/h 88 % 0 mm
09:17 23.3 °C 21 °C 1016.1 hPa Calm   6.4 km/h 87 % 0 mm
09:22 23.3 °C 21.2 °C 1016.1 hPa Calm   6.4 km/h 88 % 0 mm
09:27 23.4 °C 21.1 °C 1016.1 hPa ENE 4.8 km/h 4.8 km/h 87 % 0 mm
09:32 23.3 °C 21 °C 1016.1 hPa Calm   6.4 km/h 87 % 0 mm
09:37 23.3 °C 21.2 °C 1016.1 hPa Calm   6.4 km/h 88 % 0 mm
09:42 23.3 °C 21.2 °C 1016.1 hPa East 1.6 km/h 6.4 km/h 88 % 0 mm
09:47 23.3 °C 21.2 °C 1016.5 hPa Calm   4.8 km/h 88 % 0 mm
09:52 23.3 °C 21.4 °C 1016.1 hPa SE 1.6 km/h 4.8 km/h 89 % 0 mm
09:57 23.4 °C 21.5 °C 1016.5 hPa East 3.2 km/h 3.2 km/h 89 % 0 mm
10:02 23.6 °C 21.7 °C 1016.1 hPa NNW 3.2 km/h 4.8 km/h 89 % 0 mm
10:07 23.8 °C 21.7 °C 1016.5 hPa NW 3.2 km/h 4.8 km/h 88 % 0 mm
10:12 23.9 °C 21.8 °C 1016.5 hPa SE 3.2 km/h 8 km/h 88 % 0 mm
10:17 24.1 °C 22 °C 1016.5 hPa East 6.4 km/h 8 km/h 88 % 0 mm
10:22 24.2 °C 22.1 °C 1016.5 hPa SE 3.2 km/h 8 km/h 88 % 0 mm
10:27 24.3 °C 22.2 °C 1016.5 hPa North 1.6 km/h 8 km/h 88 % 0 mm
10:32 24.4 °C 22.1 °C 1016.5 hPa North 1.6 km/h 8 km/h 87 % 0 mm
10:37 24.7 °C 22.4 °C 1016.5 hPa ENE 4.8 km/h 6.4 km/h 87 % 0 mm
10:42 25 °C 22.7 °C 1016.5 hPa SE 3.2 km/h 8 km/h 87 % 0 mm
10:47 25.1 °C 22.4 °C 1016.5 hPa ESE 6.4 km/h 9.7 km/h 85 % 0 mm
10:52 25.1 °C 22.4 °C 1016.5 hPa East 3.2 km/h 9.7 km/h 85 % 0 mm
10:53 25.1 °C 22.4 °C 1016.5 hPa SE 1.6 km/h 9.7 km/h 85 % 0 mm
10:58 25.4 °C 22.7 °C 1016.8 hPa ESE 9.7 km/h 9.7 km/h 85 % 0 mm
11:03 25.7 °C 22.4 °C 1016.8 hPa SSE 11.3 km/h 11.3 km/h 82 % 0 mm
11:08 25.8 °C 22.3 °C 1016.8 hPa SSW 4.8 km/h 12.9 km/h 81 % 0 mm
11:13 26 °C 22.3 °C 1016.8 hPa SE 3.2 km/h 24.1 km/h 80 % 0 mm
11:18 26.3 °C 22.4 °C 1016.8 hPa SE 6.4 km/h 24.1 km/h 79 % 0 mm
11:23 26.3 °C 22.4 °C 1016.8 hPa SSE 3.2 km/h 24.1 km/h 79 % 0 mm
11:28 26.2 °C 22.1 °C 1016.8 hPa SE 12.9 km/h 20.9 km/h 78 % 0 mm
11:33 25.9 °C 22 °C 1016.8 hPa East 6.4 km/h 20.9 km/h 79 % 0 mm
11:38 25.8 °C 22.1 °C 1016.8 hPa ESE 11.3 km/h 20.9 km/h 80 % 0 mm
11:43 26 °C 22.5 °C 1016.8 hPa ENE 8 km/h 14.5 km/h 81 % 0 mm
11:48 26.2 °C 22.5 °C 1016.8 hPa South 9.7 km/h 14.5 km/h 80 % 0 mm
11:53 26.3 °C 22.2 °C 1016.8 hPa ESE 12.9 km/h 16.1 km/h 78 % 0 mm
11:58 26.2 °C 22.5 °C 1016.5 hPa SSW 9.7 km/h 17.7 km/h 80 % 0 mm
12:03 26.1 °C 22.2 °C 1016.5 hPa SE 16.1 km/h 17.7 km/h 79 % 0 mm
12:08 25.9 °C 22 °C 1016.5 hPa SSE 6.4 km/h 19.3 km/h 79 % 0 mm
12:13 26.1 °C 22.4 °C 1016.5 hPa ENE 11.3 km/h 19.3 km/h 80 % 0 mm
12:18 26.4 °C 22.3 °C 1016.5 hPa SE 6.4 km/h 19.3 km/h 78 % 0 mm
12:23 26.8 °C 22.6 °C 1016.5 hPa SE 11.3 km/h 17.7 km/h 78 % 0 mm
12:28 26.8 °C 22.4 °C 1016.5 hPa ESE 12.9 km/h 19.3 km/h 77 % 0 mm
12:33 26.7 °C 22.3 °C 1016.5 hPa South 4.8 km/h 19.3 km/h 77 % 0 mm
12:38 26.7 °C 22.1 °C 1016.5 hPa East 9.7 km/h 20.9 km/h 76 % 0 mm
12:43 26.6 °C 22.2 °C 1016.5 hPa ESE 1.6 km/h 20.9 km/h 77 % 0 mm
12:48 26.6 °C 22.4 °C 1016.5 hPa SE 6.4 km/h 20.9 km/h 78 % 0 mm
12:53 26.6 °C 22.2 °C 1016.5 hPa East 8 km/h 17.7 km/h 77 % 0 mm
12:58 26.6 °C 22.4 °C 1016.5 hPa SE 9.7 km/h 19.3 km/h 78 % 0 mm
13:03 27.1 °C 22.7 °C 1016.1 hPa East 6.4 km/h 19.3 km/h 77 % 0 mm
13:08 27.8 °C 23 °C 1016.1 hPa NE 8 km/h 19.3 km/h 75 % 0 mm
13:13 27.5 °C 22.2 °C 1016.1 hPa ESE 14.5 km/h 16.1 km/h 73 % 0 mm
13:18 27 °C 22 °C 1016.1 hPa ESE 11.3 km/h 19.3 km/h 74 % 0 mm
13:23 26.7 °C 22.1 °C 1016.1 hPa South 3.2 km/h 19.3 km/h 76 % 0 mm
13:28 26.5 °C 21.9 °C 1016.1 hPa SE 8 km/h 19.3 km/h 76 % 0 mm
13:33 26.7 °C 22.1 °C 1016.1 hPa East 8 km/h 19.3 km/h 76 % 0 mm
13:38 26.8 °C 22 °C 1016.1 hPa SSE 11.3 km/h 17.7 km/h 75 % 0 mm
13:43 26.7 °C 21.7 °C 1016.1 hPa ESE 11.3 km/h 17.7 km/h 74 % 0 mm
13:48 26.6 °C 21.8 °C 1016.1 hPa SSE 8 km/h 17.7 km/h 75 % 0 mm
13:53 26.5 °C 21.7 °C 1015.8 hPa SSE 6.4 km/h 17.7 km/h 75 % 0 mm
13:58 26.5 °C 21.7 °C 1015.8 hPa East 3.2 km/h 17.7 km/h 75 % 0 mm
14:03 26.5 °C 21.7 °C 1015.8 hPa SSE 4.8 km/h 19.3 km/h 75 % 0 mm
14:08 26.3 °C 21.5 °C 1015.8 hPa East 3.2 km/h 19.3 km/h 75 % 0 mm
14:13 26.3 °C 21.5 °C 1015.8 hPa SE 11.3 km/h 19.3 km/h 75 % 0 mm
14:18 26.3 °C 21.5 °C 1015.5 hPa SSE 6.4 km/h 17.7 km/h 75 % 0 mm
14:23 26.4 °C 21.6 °C 1015.8 hPa SE 17.7 km/h 17.7 km/h 75 % 0 mm
14:28 26.5 °C 21.5 °C 1015.5 hPa ESE 9.7 km/h 17.7 km/h 74 % 0 mm
14:33 26.7 °C 21.7 °C 1015.5 hPa NNW 4.8 km/h 17.7 km/h 74 % 0 mm
14:38 26.7 °C 21.7 °C 1015.5 hPa East 1.6 km/h 19.3 km/h 74 % 0 mm
14:43 26.8 °C 21.8 °C 1015.1 hPa SE 4.8 km/h 19.3 km/h 74 % 0 mm
14:48 27 °C 21.7 °C 1015.1 hPa East 6.4 km/h 19.3 km/h 73 % 0 mm
14:54 27.2 °C 21.5 °C 1015.1 hPa East 16.1 km/h 17.7 km/h 71 % 0 mm
14:59 27.6 °C 21.9 °C 1015.1 hPa ESE 8 km/h 20.9 km/h 71 % 0 mm
15:04 27.8 °C 21.3 °C 1015.1 hPa East 9.7 km/h 20.9 km/h 68 % 0 mm
15:09 27.9 °C 21.7 °C 1014.8 hPa SE 1.6 km/h 20.9 km/h 69 % 0 mm
15:14 28.1 °C 21.6 °C 1014.8 hPa ESE 6.4 km/h 19.3 km/h 68 % 0 mm
15:19 28.3 °C 21.6 °C 1014.8 hPa East 9.7 km/h 16.1 km/h 67 % 0 mm
15:24 28.5 °C 22 °C 1014.8 hPa SE 4.8 km/h 16.1 km/h 68 % 0 mm
15:29 28.4 °C 21.4 °C 1014.4 hPa SSE 11.3 km/h 22.5 km/h 66 % 0 mm
15:34 28.3 °C 20.8 °C 1014.4 hPa SE 12.9 km/h 22.5 km/h 64 % 0 mm
15:39 28.8 °C 21.1 °C 1014.4 hPa ESE 12.9 km/h 22.5 km/h 63 % 0 mm
15:44 28.7 °C 21 °C 1014.4 hPa SSE 11.3 km/h 24.1 km/h 63 % 0 mm
15:49 28.9 °C 21.1 °C 1014.1 hPa SE 11.3 km/h 24.1 km/h 63 % 0 mm
15:54 28.8 °C 20.8 °C 1014.1 hPa SSE 6.4 km/h 24.1 km/h 62 % 0 mm
15:59 29.1 °C 21.3 °C 1014.1 hPa ESE 20.9 km/h 22.5 km/h 63 % 0 mm
16:04 29.2 °C 20.9 °C 1014.1 hPa ESE 12.9 km/h 22.5 km/h 61 % 0 mm
16:09 29.3 °C 21 °C 1013.8 hPa ESE 20.9 km/h 22.5 km/h 61 % 0 mm
16:14 29.4 °C 20.5 °C 1013.8 hPa South 17.7 km/h 24.1 km/h 59 % 0 mm
16:19 29.5 °C 20.9 °C 1013.8 hPa ESE 8 km/h 24.1 km/h 60 % 0 mm
16:24 29.6 °C 21 °C 1013.8 hPa SE 11.3 km/h 24.1 km/h 60 % 0 mm
16:29 29.7 °C 21.1 °C 1013.8 hPa South 16.1 km/h 20.9 km/h 60 % 0 mm
16:34 29.8 °C 21.2 °C 1013.4 hPa SE 11.3 km/h 24.1 km/h 60 % 0 mm
16:39 29.6 °C 21.3 °C 1013.8 hPa ESE 9.7 km/h 24.1 km/h 61 % 0 mm
16:44 29.2 °C 20.6 °C 1013.8 hPa SSE 14.5 km/h 24.1 km/h 60 % 0 mm
16:49 29 °C 20.7 °C 1013.8 hPa ESE 12.9 km/h 22.5 km/h 61 % 0 mm
16:54 28.7 °C 21 °C 1013.8 hPa South 8 km/h 20.9 km/h 63 % 0 mm
16:59 28.3 °C 20.6 °C 1013.8 hPa SE 6.4 km/h 20.9 km/h 63 % 0 mm
17:04 28.3 °C 20.8 °C 1013.8 hPa SE 9.7 km/h 20.9 km/h 64 % 0 mm
17:09 28.2 °C 21 °C 1013.8 hPa SE 14.5 km/h 20.9 km/h 65 % 0 mm
17:14 28 °C 21.3 °C 1013.8 hPa South 3.2 km/h 24.1 km/h 67 % 0 mm
17:19 27.8 °C 21.3 °C 1013.8 hPa SE 3.2 km/h 24.1 km/h 68 % 0 mm
17:24 27.8 °C 21.3 °C 1013.8 hPa SSE 11.3 km/h 24.1 km/h 68 % 0 mm
17:29 27.8 °C 21.1 °C 1013.8 hPa SE 4.8 km/h 17.7 km/h 67 % 0 mm
17:34 27.9 °C 20.7 °C 1013.8 hPa SSE 9.7 km/h 17.7 km/h 65 % 0 mm
17:40 27.9 °C 21.2 °C 1013.8 hPa SE 6.4 km/h 19.3 km/h 67 % 0 mm
17:45 27.9 °C 21.2 °C 1013.4 hPa SSE 9.7 km/h 19.3 km/h 67 % 0 mm
17:50 27.9 °C 21 °C 1013.4 hPa SE 4.8 km/h 19.3 km/h 66 % 0 mm
17:55 27.8 °C 20.9 °C 1013.4 hPa SSE 11.3 km/h 19.3 km/h 66 % 0 mm
18:00 27.6 °C 21.2 °C 1013.8 hPa East 4.8 km/h 19.3 km/h 68 % 0 mm
18:05 27.4 °C 21.2 °C 1013.4 hPa East 12.9 km/h 19.3 km/h 69 % 0 mm
18:10 27.3 °C 21.1 °C 1013.4 hPa SE 6.4 km/h 16.1 km/h 69 % 0 mm
18:15 27.2 °C 21.2 °C 1013.4 hPa East 8 km/h 16.1 km/h 70 % 0 mm
18:20 27.1 °C 20.9 °C 1013.4 hPa SE 8 km/h 24.1 km/h 69 % 0 mm
18:25 27 °C 20.8 °C 1013.4 hPa SSE 6.4 km/h 24.1 km/h 69 % 0 mm
18:26 27 °C 21.1 °C 1013.4 hPa SE 12.9 km/h 24.1 km/h 70 % 0 mm
18:31 27.1 °C 21.2 °C 1013.4 hPa SSE 4.8 km/h 24.1 km/h 70 % 0 mm
18:36 27 °C 21.1 °C 1013.4 hPa SSE 8 km/h 20.9 km/h 70 % 0 mm
18:41 26.9 °C 21 °C 1013.4 hPa SSE 6.4 km/h 19.3 km/h 70 % 0 mm
18:46 26.9 °C 21 °C 1013.8 hPa SSE 6.4 km/h 20.9 km/h 70 % 0 mm
18:51 26.8 °C 21.1 °C 1013.8 hPa SE 6.4 km/h 20.9 km/h 71 % 0 mm
18:56 26.6 °C 21.1 °C 1013.8 hPa SE 3.2 km/h 20.9 km/h 72 % 0 mm
19:01 26.4 °C 21.2 °C 1013.8 hPa SSE 8 km/h 19.3 km/h 73 % 0 mm
19:06 26.2 °C 21 °C 1013.8 hPa East 11.3 km/h 19.3 km/h 73 % 0 mm
19:11 26.1 °C 21.1 °C 1013.4 hPa ENE 4.8 km/h 19.3 km/h 74 % 0 mm
19:16 25.9 °C 21.1 °C 1013.8 hPa South 4.8 km/h 16.1 km/h 75 % 0 mm
19:21 25.8 °C 21 °C 1013.8 hPa ESE 9.7 km/h 14.5 km/h 75 % 0 mm
19:26 25.7 °C 20.9 °C 1013.8 hPa SE 11.3 km/h 20.9 km/h 75 % 0 mm
19:31 25.6 °C 20.8 °C 1013.8 hPa SE 8 km/h 20.9 km/h 75 % 0 mm
19:36 25.6 °C 20.8 °C 1013.8 hPa SE 3.2 km/h 20.9 km/h 75 % 0 mm
19:41 25.4 °C 20.9 °C 1013.8 hPa SE 9.7 km/h 19.3 km/h 76 % 0 mm
19:46 25.4 °C 20.9 °C 1013.8 hPa ESE 9.7 km/h 20.9 km/h 76 % 0 mm
19:51 25.3 °C 20.8 °C 1013.8 hPa SSE 8 km/h 22.5 km/h 76 % 0 mm
19:56 25.2 °C 20.9 °C 1013.8 hPa ESE 12.9 km/h 22.5 km/h 77 % 0 mm
20:01 25.1 °C 20.8 °C 1013.8 hPa East 14.5 km/h 22.5 km/h 77 % 0 mm
20:06 25 °C 20.9 °C 1013.8 hPa SE 1.6 km/h 19.3 km/h 78 % 0 mm
20:11 24.9 °C 20.8 °C 1013.8 hPa ESE 9.7 km/h 19.3 km/h 78 % 0 mm
20:16 24.8 °C 20.7 °C 1013.8 hPa East 6.4 km/h 14.5 km/h 78 % 0 mm
20:22 24.7 °C 20.8 °C 1014.1 hPa ESE 8 km/h 14.5 km/h 79 % 0 mm
20:27 24.6 °C 20.7 °C 1014.1 hPa ESE 6.4 km/h 17.7 km/h 79 % 0 mm
20:32 24.6 °C 20.7 °C 1014.1 hPa SE 1.6 km/h 17.7 km/h 79 % 0 mm
20:37 24.5 °C 20.8 °C 1014.1 hPa East 3.2 km/h 17.7 km/h 80 % 0 mm
20:42 24.4 °C 20.7 °C 1014.1 hPa ENE 6.4 km/h 14.5 km/h 80 % 0 mm
20:47 24.3 °C 20.6 °C 1014.4 hPa SE 4.8 km/h 14.5 km/h 80 % 0 mm
20:52 24.2 °C 20.7 °C 1014.4 hPa ESE 8 km/h 14.5 km/h 81 % 0 mm
20:57 24.2 °C 20.7 °C 1014.4 hPa SSE 6.4 km/h 14.5 km/h 81 % 0 mm
21:02 24.1 °C 20.6 °C 1014.4 hPa SE 3.2 km/h 14.5 km/h 81 % 0 mm
21:07 24 °C 20.7 °C 1014.4 hPa ESE 8 km/h 11.3 km/h 82 % 0 mm
21:12 23.9 °C 20.6 °C 1014.4 hPa SE 3.2 km/h 12.9 km/h 82 % 0 mm
21:17 23.9 °C 20.6 °C 1014.4 hPa ESE 4.8 km/h 12.9 km/h 82 % 0 mm
21:22 23.8 °C 20.5 °C 1014.4 hPa East 3.2 km/h 12.9 km/h 82 % 0 mm
21:27 23.8 °C 20.7 °C 1014.4 hPa SE 6.4 km/h 11.3 km/h 83 % 0 mm
21:32 23.9 °C 20.6 °C 1014.8 hPa SE 3.2 km/h 9.7 km/h 82 % 0 mm
21:37 23.9 °C 20.6 °C 1014.8 hPa ESE 8 km/h 11.3 km/h 82 % 0 mm
21:42 23.9 °C 20.6 °C 1014.8 hPa SE 8 km/h 11.3 km/h 82 % 0 mm
21:47 23.9 °C 20.6 °C 1014.4 hPa ESE 4.8 km/h 11.3 km/h 82 % 0 mm
21:52 23.9 °C 20.4 °C 1014.8 hPa SE 4.8 km/h 11.3 km/h 81 % 0 mm
21:57 23.8 °C 20.1 °C 1014.8 hPa SSE 4.8 km/h 14.5 km/h 80 % 0 mm
22:02 23.8 °C 19.9 °C 1014.8 hPa ESE 6.4 km/h 17.7 km/h 79 % 0 mm
22:07 23.8 °C 19.9 °C 1014.8 hPa SSW 4.8 km/h 17.7 km/h 79 % 0 mm
22:12 23.8 °C 19.9 °C 1015.1 hPa SE 4.8 km/h 17.7 km/h 79 % 0 mm
22:17 23.7 °C 20 °C 1015.1 hPa ESE 6.4 km/h 14.5 km/h 80 % 0 mm
22:22 23.7 °C 20 °C 1015.1 hPa ESE 6.4 km/h 14.5 km/h 80 % 0 mm
22:27 23.6 °C 19.9 °C 1015.1 hPa SSE 3.2 km/h 11.3 km/h 80 % 0 mm
22:32 23.6 °C 20.1 °C 1015.1 hPa ESE 4.8 km/h 11.3 km/h 81 % 0 mm
22:37 23.5 °C 20 °C 1015.1 hPa SSE 6.4 km/h 19.3 km/h 81 % 0 mm
22:42 23.4 °C 20 °C 1015.1 hPa ESE 3.2 km/h 19.3 km/h 81 % 0 mm
22:47 23.4 °C 20.1 °C 1015.1 hPa SSW 4.8 km/h 19.3 km/h 82 % 0 mm
22:52 23.3 °C 20.1 °C 1015.1 hPa SE 1.6 km/h 11.3 km/h 82 % 0 mm
22:53 23.3 °C 20.1 °C 1015.1 hPa ESE 4.8 km/h 11.3 km/h 82 % 0 mm
22:58 23.2 °C 20 °C 1015.1 hPa SE 1.6 km/h 11.3 km/h 82 % 0 mm
23:03 23.2 °C 20 °C 1015.1 hPa SE 1.6 km/h 8 km/h 82 % 0 mm
23:08 23.2 °C 20.2 °C 1015.1 hPa ESE 1.6 km/h 9.7 km/h 83 % 0 mm
23:13 23.1 °C 20.1 °C 1015.1 hPa Calm   9.7 km/h 83 % 0 mm
23:18 23.1 °C 20.1 °C 1015.1 hPa SE 4.8 km/h 9.7 km/h 83 % 0 mm
23:23 23 °C 20.1 °C 1015.1 hPa ESE 6.4 km/h 8 km/h 84 % 0 mm
23:28 23 °C 20.1 °C 1015.1 hPa ESE 4.8 km/h 8 km/h 84 % 0 mm
23:33 23 °C 20.1 °C 1015.1 hPa South 4.8 km/h 8 km/h 84 % 0 mm
23:38 22.9 °C 20.1 °C 1015.5 hPa SE 4.8 km/h 9.7 km/h 84 % 0 mm
23:43 23 °C 20.1 °C 1015.1 hPa SE 6.4 km/h 9.7 km/h 84 % 0 mm
23:51 23 °C 20.1 °C 1015.1 hPa East 9.7 km/h 9.7 km/h 84 % 0 mm
23:56 23.1 °C 20.2 °C 1015.5 hPa SSE 3.2 km/h 12.9 km/h 84 % 0 mm
Spring, Texas: Villages of Bridgestone
Compliments of Weather Underground - 2.75 mb

Script developed by  Jim McMurry - jmcmurry@mwt.net Adapted for the template by  Wim van der Kuil - Leuven-Template.eu

You find our weather info also at:

UK Metoffice

WeatherCloud

Weather Underground

Mid-South Weather Network

AWEKAS

Citizen Weather Observer Program (CWOP)

HAMweather, WeatherForYou, PWS Weather

Equipment we use:

Weather-station
Davis Vantage Vue

Weather-program
Meteohub

Weather-server
Debian 7.9 x86 (Guest)

Provider
DreamHost

Davis Vantage Vue

Meteohub

Debian 7.9 x86 (Guest)

DreamHost